sensor_id;sensor_type;location;lat;lon;timestamp;P1;durP1;ratioP1;P2;durP2;ratioP2
44452;SDS011;30155;52.164;21.236;2024-03-07T00:01:17;21.20;;;12.70;;
44452;SDS011;30155;52.164;21.236;2024-03-07T00:06:09;17.10;;;11.90;;
44452;SDS011;30155;52.164;21.236;2024-03-07T00:11:01;18.00;;;13.50;;
44452;SDS011;30155;52.164;21.236;2024-03-07T00:15:53;19.10;;;13.40;;
44452;SDS011;30155;52.164;21.236;2024-03-07T00:20:47;20.90;;;14.80;;
44452;SDS011;30155;52.164;21.236;2024-03-07T00:25:38;21.00;;;14.10;;
44452;SDS011;30155;52.164;21.236;2024-03-07T00:30:30;18.70;;;14.30;;
44452;SDS011;30155;52.164;21.236;2024-03-07T00:35:21;24.10;;;15.50;;
44452;SDS011;30155;52.164;21.236;2024-03-07T00:40:13;19.00;;;13.50;;
44452;SDS011;30155;52.164;21.236;2024-03-07T00:45:05;21.90;;;14.90;;
44452;SDS011;30155;52.164;21.236;2024-03-07T00:49:57;22.00;;;13.20;;
44452;SDS011;30155;52.164;21.236;2024-03-07T00:54:48;19.70;;;13.70;;
44452;SDS011;30155;52.164;21.236;2024-03-07T00:59:40;20.80;;;13.60;;
44452;SDS011;30155;52.164;21.236;2024-03-07T01:04:32;16.10;;;12.40;;
44452;SDS011;30155;52.164;21.236;2024-03-07T01:09:24;17.80;;;12.80;;
44452;SDS011;30155;52.164;21.236;2024-03-07T01:14:16;20.50;;;12.40;;
44452;SDS011;30155;52.164;21.236;2024-03-07T01:19:08;19.20;;;12.90;;
44452;SDS011;30155;52.164;21.236;2024-03-07T01:23:59;18.40;;;11.80;;
44452;SDS011;30155;52.164;21.236;2024-03-07T01:28:51;15.70;;;12.00;;
44452;SDS011;30155;52.164;21.236;2024-03-07T01:33:43;17.90;;;12.20;;
44452;SDS011;30155;52.164;21.236;2024-03-07T01:38:35;17.70;;;12.50;;
44452;SDS011;30155;52.164;21.236;2024-03-07T01:43:27;18.30;;;11.80;;
44452;SDS011;30155;52.164;21.236;2024-03-07T01:48:25;18.40;;;13.30;;
44452;SDS011;30155;52.164;21.236;2024-03-07T01:53:27;20.00;;;13.70;;
44452;SDS011;30155;52.164;21.236;2024-03-07T01:58:21;19.50;;;13.80;;
44452;SDS011;30155;52.164;21.236;2024-03-07T02:03:16;18.60;;;12.70;;
44452;SDS011;30155;52.164;21.236;2024-03-07T02:08:10;17.80;;;12.50;;
44452;SDS011;30155;52.164;21.236;2024-03-07T02:13:03;17.10;;;12.70;;
44452;SDS011;30155;52.164;21.236;2024-03-07T02:17:56;18.60;;;13.90;;
44452;SDS011;30155;52.164;21.236;2024-03-07T02:22:49;21.10;;;13.70;;
44452;SDS011;30155;52.164;21.236;2024-03-07T02:27:43;17.00;;;12.00;;
44452;SDS011;30155;52.164;21.236;2024-03-07T02:32:37;20.50;;;12.80;;
44452;SDS011;30155;52.164;21.236;2024-03-07T02:37:30;20.80;;;13.20;;
44452;SDS011;30155;52.164;21.236;2024-03-07T02:42:23;16.50;;;11.50;;
44452;SDS011;30155;52.164;21.236;2024-03-07T02:47:16;18.80;;;12.20;;
44452;SDS011;30155;52.164;21.236;2024-03-07T02:52:09;17.70;;;12.70;;
44452;SDS011;30155;52.164;21.236;2024-03-07T02:57:02;22.30;;;14.40;;
44452;SDS011;30155;52.164;21.236;2024-03-07T03:01:55;21.10;;;13.20;;
44452;SDS011;30155;52.164;21.236;2024-03-07T03:06:47;17.40;;;12.80;;
44452;SDS011;30155;52.164;21.236;2024-03-07T03:11:40;21.90;;;14.60;;
44452;SDS011;30155;52.164;21.236;2024-03-07T03:16:33;19.70;;;12.90;;
44452;SDS011;30155;52.164;21.236;2024-03-07T03:21:38;21.00;;;13.00;;
44452;SDS011;30155;52.164;21.236;2024-03-07T03:26:32;19.50;;;12.70;;
44452;SDS011;30155;52.164;21.236;2024-03-07T03:31:25;17.00;;;10.90;;
44452;SDS011;30155;52.164;21.236;2024-03-07T03:36:18;19.30;;;13.10;;
44452;SDS011;30155;52.164;21.236;2024-03-07T03:41:14;16.90;;;12.80;;
44452;SDS011;30155;52.164;21.236;2024-03-07T03:46:11;18.10;;;11.90;;
44452;SDS011;30155;52.164;21.236;2024-03-07T03:51:06;19.90;;;12.20;;
44452;SDS011;30155;52.164;21.236;2024-03-07T03:56:00;19.60;;;12.10;;
44452;SDS011;30155;52.164;21.236;2024-03-07T04:00:54;18.90;;;11.40;;
44452;SDS011;30155;52.164;21.236;2024-03-07T04:05:46;16.60;;;11.50;;
44452;SDS011;30155;52.164;21.236;2024-03-07T04:10:40;20.10;;;13.40;;
44452;SDS011;30155;52.164;21.236;2024-03-07T04:15:33;17.10;;;11.60;;
44452;SDS011;30155;52.164;21.236;2024-03-07T04:20:28;21.00;;;12.20;;
44452;SDS011;30155;52.164;21.236;2024-03-07T04:25:21;20.90;;;12.40;;
44452;SDS011;30155;52.164;21.236;2024-03-07T04:30:13;19.70;;;12.40;;
44452;SDS011;30155;52.164;21.236;2024-03-07T04:35:08;17.40;;;11.20;;
44452;SDS011;30155;52.164;21.236;2024-03-07T04:40:06;17.70;;;11.50;;
44452;SDS011;30155;52.164;21.236;2024-03-07T04:45:10;21.70;;;12.70;;
44452;SDS011;30155;52.164;21.236;2024-03-07T04:50:05;20.10;;;11.80;;
44452;SDS011;30155;52.164;21.236;2024-03-07T04:54:58;17.50;;;11.70;;
44452;SDS011;30155;52.164;21.236;2024-03-07T04:59:51;22.70;;;12.70;;
44452;SDS011;30155;52.164;21.236;2024-03-07T05:04:44;20.20;;;11.70;;
44452;SDS011;30155;52.164;21.236;2024-03-07T05:09:36;18.60;;;12.30;;
44452;SDS011;30155;52.164;21.236;2024-03-07T05:14:29;19.80;;;12.10;;
44452;SDS011;30155;52.164;21.236;2024-03-07T05:19:22;17.10;;;11.50;;
44452;SDS011;30155;52.164;21.236;2024-03-07T05:24:15;18.40;;;11.40;;
44452;SDS011;30155;52.164;21.236;2024-03-07T05:29:09;16.40;;;10.30;;
44452;SDS011;30155;52.164;21.236;2024-03-07T05:34:05;17.70;;;12.40;;
44452;SDS011;30155;52.164;21.236;2024-03-07T05:38:59;18.00;;;11.40;;
44452;SDS011;30155;52.164;21.236;2024-03-07T05:43:59;25.20;;;13.80;;
44452;SDS011;30155;52.164;21.236;2024-03-07T05:48:52;22.40;;;11.60;;
44452;SDS011;30155;52.164;21.236;2024-03-07T05:53:47;19.10;;;12.10;;
44452;SDS011;30155;52.164;21.236;2024-03-07T05:58:40;26.80;;;13.00;;
44452;SDS011;30155;52.164;21.236;2024-03-07T06:03:36;23.20;;;13.60;;
44452;SDS011;30155;52.164;21.236;2024-03-07T06:08:29;23.00;;;13.30;;
44452;SDS011;30155;52.164;21.236;2024-03-07T06:13:22;24.40;;;13.60;;
44452;SDS011;30155;52.164;21.236;2024-03-07T06:18:15;21.50;;;12.30;;
44452;SDS011;30155;52.164;21.236;2024-03-07T06:23:08;21.70;;;13.80;;
44452;SDS011;30155;52.164;21.236;2024-03-07T06:28:03;19.80;;;12.60;;
44452;SDS011;30155;52.164;21.236;2024-03-07T06:33:03;20.50;;;13.10;;
44452;SDS011;30155;52.164;21.236;2024-03-07T06:37:56;20.00;;;13.60;;
44452;SDS011;30155;52.164;21.236;2024-03-07T06:42:49;22.60;;;12.80;;
44452;SDS011;30155;52.164;21.236;2024-03-07T06:47:43;22.30;;;12.90;;
44452;SDS011;30155;52.164;21.236;2024-03-07T06:52:36;22.30;;;13.10;;
44452;SDS011;30155;52.164;21.236;2024-03-07T06:57:29;20.10;;;12.40;;
44452;SDS011;30155;52.164;21.236;2024-03-07T07:02:25;18.70;;;12.40;;
44452;SDS011;30155;52.164;21.236;2024-03-07T07:07:19;18.10;;;12.40;;
44452;SDS011;30155;52.164;21.236;2024-03-07T07:12:12;17.40;;;11.50;;
44452;SDS011;30155;52.164;21.236;2024-03-07T07:17:06;16.50;;;11.70;;
44452;SDS011;30155;52.164;21.236;2024-03-07T07:22:02;20.00;;;11.30;;
44452;SDS011;30155;52.164;21.236;2024-03-07T07:26:57;16.90;;;12.30;;
44452;SDS011;30155;52.164;21.236;2024-03-07T07:31:52;17.30;;;11.30;;
44452;SDS011;30155;52.164;21.236;2024-03-07T07:36:45;16.80;;;11.00;;
44452;SDS011;30155;52.164;21.236;2024-03-07T07:41:37;16.00;;;10.60;;
44452;SDS011;30155;52.164;21.236;2024-03-07T07:46:30;14.80;;;10.80;;
44452;SDS011;30155;52.164;21.236;2024-03-07T07:51:25;13.40;;;10.40;;
44452;SDS011;30155;52.164;21.236;2024-03-07T07:56:18;13.80;;;10.30;;
44452;SDS011;30155;52.164;21.236;2024-03-07T08:01:13;15.00;;;9.80;;
44452;SDS011;30155;52.164;21.236;2024-03-07T08:06:08;12.20;;;10.80;;
44452;SDS011;30155;52.164;21.236;2024-03-07T08:11:01;13.50;;;9.20;;
44452;SDS011;30155;52.164;21.236;2024-03-07T08:15:54;10.40;;;9.30;;
44452;SDS011;30155;52.164;21.236;2024-03-07T08:20:47;11.30;;;8.10;;
44452;SDS011;30155;52.164;21.236;2024-03-07T08:25:43;10.90;;;8.60;;
44452;SDS011;30155;52.164;21.236;2024-03-07T08:30:36;10.40;;;8.10;;
44452;SDS011;30155;52.164;21.236;2024-03-07T08:35:29;9.70;;;7.70;;
44452;SDS011;30155;52.164;21.236;2024-03-07T08:45:25;8.40;;;7.30;;
44452;SDS011;30155;52.164;21.236;2024-03-07T08:50:19;15.60;;;7.90;;
44452;SDS011;30155;52.164;21.236;2024-03-07T08:55:12;8.50;;;6.10;;
44452;SDS011;30155;52.164;21.236;2024-03-07T09:00:07;9.10;;;6.10;;
44452;SDS011;30155;52.164;21.236;2024-03-07T09:05:02;6.60;;;5.90;;
44452;SDS011;30155;52.164;21.236;2024-03-07T09:09:55;7.90;;;5.60;;
44452;SDS011;30155;52.164;21.236;2024-03-07T09:14:49;6.60;;;6.00;;
44452;SDS011;30155;52.164;21.236;2024-03-07T09:19:44;6.70;;;5.70;;
44452;SDS011;30155;52.164;21.236;2024-03-07T09:24:37;6.10;;;5.40;;
44452;SDS011;30155;52.164;21.236;2024-03-07T09:29:30;6.40;;;5.70;;
44452;SDS011;30155;52.164;21.236;2024-03-07T09:34:23;7.20;;;5.70;;
44452;SDS011;30155;52.164;21.236;2024-03-07T09:39:17;6.50;;;5.90;;
44452;SDS011;30155;52.164;21.236;2024-03-07T09:44:12;6.60;;;5.90;;
44452;SDS011;30155;52.164;21.236;2024-03-07T09:49:09;7.20;;;6.40;;
44452;SDS011;30155;52.164;21.236;2024-03-07T09:54:02;6.50;;;5.90;;
44452;SDS011;30155;52.164;21.236;2024-03-07T09:58:57;6.70;;;6.00;;
44452;SDS011;30155;52.164;21.236;2024-03-07T10:03:53;8.80;;;6.50;;
44452;SDS011;30155;52.164;21.236;2024-03-07T10:09:01;6.80;;;6.10;;
44452;SDS011;30155;52.164;21.236;2024-03-07T10:13:55;6.60;;;5.90;;
44452;SDS011;30155;52.164;21.236;2024-03-07T10:18:48;6.60;;;6.00;;
44452;SDS011;30155;52.164;21.236;2024-03-07T10:23:42;7.40;;;6.70;;
44452;SDS011;30155;52.164;21.236;2024-03-07T10:28:35;6.90;;;5.70;;
44452;SDS011;30155;52.164;21.236;2024-03-07T10:33:30;7.40;;;5.70;;
44452;SDS011;30155;52.164;21.236;2024-03-07T10:38:25;8.40;;;6.10;;
44452;SDS011;30155;52.164;21.236;2024-03-07T10:43:19;6.50;;;5.90;;
44452;SDS011;30155;52.164;21.236;2024-03-07T10:48:18;7.50;;;6.70;;
44452;SDS011;30155;52.164;21.236;2024-03-07T10:58:30;6.70;;;5.80;;
44452;SDS011;30155;52.164;21.236;2024-03-07T11:03:34;7.10;;;6.40;;
44452;SDS011;30155;52.164;21.236;2024-03-07T11:08:28;5.90;;;5.30;;
44452;SDS011;30155;52.164;21.236;2024-03-07T11:13:20;6.50;;;5.90;;
44452;SDS011;30155;52.164;21.236;2024-03-07T11:18:13;8.40;;;7.40;;
44452;SDS011;30155;52.164;21.236;2024-03-07T11:28:28;7.00;;;6.30;;
44452;SDS011;30155;52.164;21.236;2024-03-07T11:33:22;9.90;;;6.90;;
44452;SDS011;30155;52.164;21.236;2024-03-07T11:38:16;6.20;;;5.70;;
44452;SDS011;30155;52.164;21.236;2024-03-07T11:43:15;8.00;;;6.20;;
44452;SDS011;30155;52.164;21.236;2024-03-07T11:48:08;6.90;;;6.30;;
44452;SDS011;30155;52.164;21.236;2024-03-07T11:53:02;17.00;;;8.40;;
44452;SDS011;30155;52.164;21.236;2024-03-07T11:57:57;6.80;;;6.10;;
44452;SDS011;30155;52.164;21.236;2024-03-07T12:02:50;7.30;;;6.00;;
44452;SDS011;30155;52.164;21.236;2024-03-07T12:07:46;7.60;;;6.30;;
44452;SDS011;30155;52.164;21.236;2024-03-07T12:12:41;7.70;;;6.90;;
44452;SDS011;30155;52.164;21.236;2024-03-07T12:17:35;9.00;;;7.20;;
44452;SDS011;30155;52.164;21.236;2024-03-07T12:22:28;8.00;;;6.90;;
44452;SDS011;30155;52.164;21.236;2024-03-07T12:27:22;6.40;;;5.70;;
44452;SDS011;30155;52.164;21.236;2024-03-07T12:32:15;8.60;;;6.50;;
44452;SDS011;30155;52.164;21.236;2024-03-07T12:37:08;8.90;;;7.50;;
44452;SDS011;30155;52.164;21.236;2024-03-07T12:42:02;9.30;;;6.00;;
44452;SDS011;30155;52.164;21.236;2024-03-07T12:46:56;6.80;;;6.10;;
44452;SDS011;30155;52.164;21.236;2024-03-07T12:51:49;8.30;;;6.70;;
44452;SDS011;30155;52.164;21.236;2024-03-07T12:56:42;7.10;;;6.10;;
44452;SDS011;30155;52.164;21.236;2024-03-07T13:01:35;8.80;;;6.70;;
44452;SDS011;30155;52.164;21.236;2024-03-07T13:06:31;9.10;;;6.30;;
44452;SDS011;30155;52.164;21.236;2024-03-07T13:11:24;13.10;;;7.80;;
44452;SDS011;30155;52.164;21.236;2024-03-07T13:16:22;9.00;;;6.40;;
44452;SDS011;30155;52.164;21.236;2024-03-07T13:21:21;7.70;;;6.30;;
44452;SDS011;30155;52.164;21.236;2024-03-07T13:26:17;8.40;;;5.50;;
44452;SDS011;30155;52.164;21.236;2024-03-07T13:31:15;7.10;;;6.20;;
44452;SDS011;30155;52.164;21.236;2024-03-07T13:36:09;8.10;;;6.10;;
44452;SDS011;30155;52.164;21.236;2024-03-07T13:41:02;7.60;;;6.20;;
44452;SDS011;30155;52.164;21.236;2024-03-07T13:45:55;8.30;;;6.60;;
44452;SDS011;30155;52.164;21.236;2024-03-07T13:50:48;9.90;;;6.80;;
44452;SDS011;30155;52.164;21.236;2024-03-07T14:00:55;8.30;;;6.00;;
44452;SDS011;30155;52.164;21.236;2024-03-07T14:06:08;8.10;;;6.50;;
44452;SDS011;30155;52.164;21.236;2024-03-07T14:22:08;9.60;;;6.60;;
44452;SDS011;30155;52.164;21.236;2024-03-07T14:32:24;8.30;;;5.90;;
44452;SDS011;30155;52.164;21.236;2024-03-07T14:37:19;8.00;;;6.10;;
44452;SDS011;30155;52.164;21.236;2024-03-07T14:42:16;9.60;;;6.60;;
44452;SDS011;30155;52.164;21.236;2024-03-07T14:47:11;10.00;;;6.60;;
44452;SDS011;30155;52.164;21.236;2024-03-07T14:52:06;7.50;;;5.10;;
44452;SDS011;30155;52.164;21.236;2024-03-07T14:57:02;7.60;;;6.00;;
44452;SDS011;30155;52.164;21.236;2024-03-07T15:01:56;10.10;;;7.20;;
44452;SDS011;30155;52.164;21.236;2024-03-07T15:06:51;7.20;;;6.40;;
44452;SDS011;30155;52.164;21.236;2024-03-07T15:11:48;8.60;;;6.30;;
44452;SDS011;30155;52.164;21.236;2024-03-07T15:16:41;7.70;;;6.10;;
44452;SDS011;30155;52.164;21.236;2024-03-07T15:21:35;6.80;;;5.70;;
44452;SDS011;30155;52.164;21.236;2024-03-07T15:26:29;7.50;;;6.10;;
44452;SDS011;30155;52.164;21.236;2024-03-07T15:31:24;7.70;;;6.40;;
44452;SDS011;30155;52.164;21.236;2024-03-07T15:36:17;9.10;;;5.80;;
44452;SDS011;30155;52.164;21.236;2024-03-07T15:41:13;8.60;;;5.70;;
44452;SDS011;30155;52.164;21.236;2024-03-07T15:46:06;6.60;;;4.50;;
44452;SDS011;30155;52.164;21.236;2024-03-07T15:50:58;8.30;;;4.70;;
44452;SDS011;30155;52.164;21.236;2024-03-07T15:55:51;7.70;;;5.40;;
44452;SDS011;30155;52.164;21.236;2024-03-07T16:00:44;27.80;;;5.90;;
44452;SDS011;30155;52.164;21.236;2024-03-07T16:05:40;5.10;;;4.00;;
44452;SDS011;30155;52.164;21.236;2024-03-07T16:10:38;7.20;;;4.80;;
44452;SDS011;30155;52.164;21.236;2024-03-07T16:15:33;7.90;;;5.80;;
44452;SDS011;30155;52.164;21.236;2024-03-07T16:20:33;7.50;;;4.60;;
44452;SDS011;30155;52.164;21.236;2024-03-07T16:25:26;7.70;;;5.20;;
44452;SDS011;30155;52.164;21.236;2024-03-07T16:30:20;9.40;;;4.60;;
44452;SDS011;30155;52.164;21.236;2024-03-07T16:35:14;7.70;;;4.70;;
44452;SDS011;30155;52.164;21.236;2024-03-07T16:40:14;8.60;;;4.10;;
44452;SDS011;30155;52.164;21.236;2024-03-07T16:45:13;7.70;;;4.80;;
44452;SDS011;30155;52.164;21.236;2024-03-07T16:50:07;6.70;;;4.80;;
44452;SDS011;30155;52.164;21.236;2024-03-07T16:55:06;6.80;;;4.60;;
44452;SDS011;30155;52.164;21.236;2024-03-07T17:00:02;6.80;;;4.50;;
44452;SDS011;30155;52.164;21.236;2024-03-07T17:04:58;7.10;;;4.60;;
44452;SDS011;30155;52.164;21.236;2024-03-07T17:09:51;8.20;;;5.20;;
44452;SDS011;30155;52.164;21.236;2024-03-07T17:14:43;6.00;;;4.10;;
44452;SDS011;30155;52.164;21.236;2024-03-07T17:19:36;13.90;;;6.10;;
44452;SDS011;30155;52.164;21.236;2024-03-07T17:24:29;8.60;;;4.70;;
44452;SDS011;30155;52.164;21.236;2024-03-07T17:29:23;8.10;;;5.00;;
44452;SDS011;30155;52.164;21.236;2024-03-07T17:34:18;10.30;;;6.20;;
44452;SDS011;30155;52.164;21.236;2024-03-07T17:39:11;9.70;;;5.00;;
44452;SDS011;30155;52.164;21.236;2024-03-07T17:44:05;7.90;;;5.00;;
44452;SDS011;30155;52.164;21.236;2024-03-07T17:49:03;6.10;;;4.60;;
44452;SDS011;30155;52.164;21.236;2024-03-07T17:53:57;7.90;;;4.80;;
44452;SDS011;30155;52.164;21.236;2024-03-07T17:58:56;11.40;;;5.50;;
44452;SDS011;30155;52.164;21.236;2024-03-07T18:03:49;8.70;;;4.70;;
44452;SDS011;30155;52.164;21.236;2024-03-07T18:08:42;9.00;;;4.60;;
44452;SDS011;30155;52.164;21.236;2024-03-07T18:13:50;11.50;;;5.70;;
44452;SDS011;30155;52.164;21.236;2024-03-07T18:18:44;10.30;;;6.30;;
44452;SDS011;30155;52.164;21.236;2024-03-07T18:23:40;12.90;;;9.00;;
44452;SDS011;30155;52.164;21.236;2024-03-07T18:28:34;16.50;;;11.00;;
44452;SDS011;30155;52.164;21.236;2024-03-07T18:33:27;19.50;;;12.70;;
44452;SDS011;30155;52.164;21.236;2024-03-07T18:38:21;21.00;;;11.70;;
44452;SDS011;30155;52.164;21.236;2024-03-07T18:43:14;19.00;;;12.90;;
44452;SDS011;30155;52.164;21.236;2024-03-07T18:48:07;20.90;;;11.20;;
44452;SDS011;30155;52.164;21.236;2024-03-07T18:53:04;15.90;;;11.00;;
44452;SDS011;30155;52.164;21.236;2024-03-07T18:58:01;24.80;;;11.10;;
44452;SDS011;30155;52.164;21.236;2024-03-07T19:02:59;18.50;;;10.50;;
44452;SDS011;30155;52.164;21.236;2024-03-07T19:07:55;26.50;;;15.80;;
44452;SDS011;30155;52.164;21.236;2024-03-07T19:12:48;27.00;;;13.40;;
44452;SDS011;30155;52.164;21.236;2024-03-07T19:17:42;25.20;;;12.00;;
44452;SDS011;30155;52.164;21.236;2024-03-07T19:22:35;21.70;;;13.40;;
44452;SDS011;30155;52.164;21.236;2024-03-07T19:27:28;20.30;;;12.40;;
44452;SDS011;30155;52.164;21.236;2024-03-07T19:32:21;21.40;;;12.80;;
44452;SDS011;30155;52.164;21.236;2024-03-07T19:37:14;22.10;;;14.30;;
44452;SDS011;30155;52.164;21.236;2024-03-07T19:42:10;24.70;;;14.20;;
44452;SDS011;30155;52.164;21.236;2024-03-07T19:47:03;23.50;;;14.10;;
44452;SDS011;30155;52.164;21.236;2024-03-07T19:51:56;26.20;;;14.10;;
44452;SDS011;30155;52.164;21.236;2024-03-07T19:56:51;30.00;;;16.10;;
44452;SDS011;30155;52.164;21.236;2024-03-07T20:01:44;22.50;;;16.20;;
44452;SDS011;30155;52.164;21.236;2024-03-07T20:06:37;27.40;;;16.30;;
44452;SDS011;30155;52.164;21.236;2024-03-07T20:11:34;24.80;;;16.50;;
44452;SDS011;30155;52.164;21.236;2024-03-07T20:16:35;22.00;;;13.80;;
44452;SDS011;30155;52.164;21.236;2024-03-07T20:21:31;22.60;;;14.80;;
44452;SDS011;30155;52.164;21.236;2024-03-07T20:26:24;27.10;;;17.60;;
44452;SDS011;30155;52.164;21.236;2024-03-07T20:31:17;20.70;;;13.20;;
44452;SDS011;30155;52.164;21.236;2024-03-07T20:36:10;22.80;;;15.60;;
44452;SDS011;30155;52.164;21.236;2024-03-07T20:41:03;23.40;;;14.70;;
44452;SDS011;30155;52.164;21.236;2024-03-07T20:45:56;27.00;;;15.40;;
44452;SDS011;30155;52.164;21.236;2024-03-07T20:50:51;26.10;;;18.10;;
44452;SDS011;30155;52.164;21.236;2024-03-07T20:55:44;29.80;;;20.20;;
44452;SDS011;30155;52.164;21.236;2024-03-07T21:00:37;31.80;;;20.00;;
44452;SDS011;30155;52.164;21.236;2024-03-07T21:05:51;30.30;;;18.40;;
44452;SDS011;30155;52.164;21.236;2024-03-07T21:10:45;29.50;;;18.00;;
44452;SDS011;30155;52.164;21.236;2024-03-07T21:15:38;31.20;;;16.80;;
44452;SDS011;30155;52.164;21.236;2024-03-07T21:20:31;26.20;;;16.90;;
44452;SDS011;30155;52.164;21.236;2024-03-07T21:25:25;26.80;;;16.10;;
44452;SDS011;30155;52.164;21.236;2024-03-07T21:30:18;31.30;;;20.00;;
44452;SDS011;30155;52.164;21.236;2024-03-07T21:35:12;32.20;;;20.30;;
44452;SDS011;30155;52.164;21.236;2024-03-07T21:40:08;34.90;;;21.10;;
44452;SDS011;30155;52.164;21.236;2024-03-07T21:45:08;35.20;;;21.10;;
44452;SDS011;30155;52.164;21.236;2024-03-07T21:50:02;36.80;;;21.20;;
44452;SDS011;30155;52.164;21.236;2024-03-07T21:54:55;34.50;;;21.90;;
44452;SDS011;30155;52.164;21.236;2024-03-07T21:59:49;35.70;;;20.80;;
44452;SDS011;30155;52.164;21.236;2024-03-07T22:04:43;35.40;;;20.10;;
44452;SDS011;30155;52.164;21.236;2024-03-07T22:09:43;33.30;;;18.60;;
44452;SDS011;30155;52.164;21.236;2024-03-07T22:14:36;32.50;;;20.30;;
44452;SDS011;30155;52.164;21.236;2024-03-07T22:19:31;32.90;;;21.80;;
44452;SDS011;30155;52.164;21.236;2024-03-07T22:24:26;31.00;;;20.10;;
44452;SDS011;30155;52.164;21.236;2024-03-07T22:29:19;35.60;;;20.80;;
44452;SDS011;30155;52.164;21.236;2024-03-07T22:34:11;38.60;;;22.30;;
44452;SDS011;30155;52.164;21.236;2024-03-07T22:39:08;40.40;;;24.20;;
44452;SDS011;30155;52.164;21.236;2024-03-07T22:44:04;38.50;;;22.50;;
44452;SDS011;30155;52.164;21.236;2024-03-07T22:49:00;32.70;;;21.70;;
44452;SDS011;30155;52.164;21.236;2024-03-07T22:53:53;34.30;;;21.00;;
44452;SDS011;30155;52.164;21.236;2024-03-07T22:58:46;45.50;;;25.80;;
44452;SDS011;30155;52.164;21.236;2024-03-07T23:03:41;42.50;;;24.80;;
44452;SDS011;30155;52.164;21.236;2024-03-07T23:08:34;45.10;;;26.40;;
44452;SDS011;30155;52.164;21.236;2024-03-07T23:13:28;43.80;;;24.30;;
44452;SDS011;30155;52.164;21.236;2024-03-07T23:18:21;52.80;;;28.00;;
44452;SDS011;30155;52.164;21.236;2024-03-07T23:23:16;48.20;;;25.80;;
44452;SDS011;30155;52.164;21.236;2024-03-07T23:28:09;48.60;;;26.90;;
44452;SDS011;30155;52.164;21.236;2024-03-07T23:33:02;47.10;;;26.40;;
44452;SDS011;30155;52.164;21.236;2024-03-07T23:37:55;44.30;;;25.90;;
44452;SDS011;30155;52.164;21.236;2024-03-07T23:42:49;51.00;;;26.80;;
44452;SDS011;30155;52.164;21.236;2024-03-07T23:47:44;45.80;;;25.50;;
44452;SDS011;30155;52.164;21.236;2024-03-07T23:52:43;40.30;;;23.70;;
44452;SDS011;30155;52.164;21.236;2024-03-07T23:57:38;44.60;;;24.60;;
